Time;durP1;ratioP1;P1;durP2;ratioP2;P2;SDS_P1;SDS_P2;PMS_P1;PMS_P2;Temp;Humidity;BMP_temperature;BMP_pressure;BME280_temperature;BME280_humidity;BME280_pressure;Samples;Min_cycle;Max_cycle;Signal;HPM_P1;HPM_P2
2022/07/01 00:01:40;;;;;;;17.02;4.78;;;;;;;;;;5031060;28;20483;-37
2022/07/01 00:04:06;;;;;;;14.77;4.50;;;;;;;;;;5030902;28;20172;-37
2022/07/01 00:06:31;;;;;;;16.45;4.72;;;;;;;;;;5030833;28;20411;-36
2022/07/01 00:08:56;;;;;;;14.23;4.75;;;;;;;;;;5032036;28;20354;-36
2022/07/01 00:11:22;;;;;;;16.40;4.60;;;;;;;;;;5034591;28;20035;-37
2022/07/01 00:13:47;;;;;;;14.13;5.40;;;;;;;;;;5034649;28;20033;-36
2022/07/01 00:16:12;;;;;;;11.80;4.20;;;;;;;;;;5032907;28;20021;-37
2022/07/01 00:18:38;;;;;;;10.82;4.35;;;;;;;;;;5034234;28;20025;-38
2022/07/01 00:21:03;;;;;;;8.35;3.65;;;;;;;;;;5033864;28;20021;-37
2022/07/01 00:23:29;;;;;;;16.27;4.75;;;;;;;;;;5034150;28;20032;-36
2022/07/01 00:25:54;;;;;;;16.55;4.57;;;;;;;;;;5033131;28;20076;-36
2022/07/01 00:28:20;;;;;;;20.85;5.75;;;;;;;;;;5034211;28;20014;-38
2022/07/01 00:30:45;;;;;;;12.65;4.93;;;;;;;;;;5034059;28;20018;-37
2022/07/01 00:33:10;;;;;;;13.65;4.93;;;;;;;;;;5033587;28;20558;-40
2022/07/01 00:35:36;;;;;;;11.27;4.80;;;;;;;;;;5034082;28;20021;-37
2022/07/01 00:38:01;;;;;;;10.38;4.45;;;;;;;;;;5034044;28;20247;-39
2022/07/01 00:40:26;;;;;;;26.10;5.72;;;;;;;;;;5034167;28;20395;-36
2022/07/01 00:42:52;;;;;;;16.25;4.97;;;;;;;;;;5033913;28;20147;-36
2022/07/01 00:45:17;;;;;;;14.63;5.32;;;;;;;;;;5032382;28;20369;-37
2022/07/01 00:47:43;;;;;;;12.10;4.60;;;;;;;;;;5032535;28;20028;-37
2022/07/01 00:50:10;;;;;;;13.57;4.97;;;;;;;;;;5033687;28;20021;-37
2022/07/01 00:52:36;;;;;;;13.52;5.15;;;;;;;;;;5033761;28;20040;-37
2022/07/01 00:55:06;;;;;;;16.42;6.07;;;;;;;;;;5033564;28;20031;-39
2022/07/01 00:57:32;;;;;;;20.15;5.53;;;;;;;;;;5033327;28;20116;-37
2022/07/01 00:59:58;;;;;;;13.88;5.10;;;;;;;;;;5033719;28;20017;-36
2022/07/01 01:02:23;;;;;;;23.60;5.68;;;;;;;;;;5033466;28;20558;-37
2022/07/01 01:04:49;;;;;;;21.48;5.32;;;;;;;;;;5033798;28;20469;-38
2022/07/01 01:07:14;;;;;;;8.40;4.28;;;;;;;;;;5033147;28;20030;-37
2022/07/01 01:09:40;;;;;;;14.65;5.85;;;;;;;;;;5033431;28;20013;-37
2022/07/01 01:12:05;;;;;;;15.00;5.40;;;;;;;;;;5033397;28;20378;-37
2022/07/01 01:14:42;;;;;;;13.55;5.20;;;;;;;;;;5033335;28;20033;-37
2022/07/01 01:17:08;;;;;;;12.15;4.82;;;;;;;;;;5033055;28;20021;-39
2022/07/01 01:19:33;;;;;;;11.70;4.57;;;;;;;;;;5032554;28;20021;-37
2022/07/01 01:21:59;;;;;;;13.20;3.90;;;;;;;;;;5032823;28;20033;-37
2022/07/01 01:24:24;;;;;;;10.38;4.40;;;;;;;;;;5032941;28;20250;-36
2022/07/01 01:26:49;;;;;;;10.32;4.78;;;;;;;;;;5033296;28;20017;-37
2022/07/01 01:29:16;;;;;;;13.52;4.85;;;;;;;;;;5033031;28;20021;-37
2022/07/01 01:31:41;;;;;;;11.18;4.80;;;;;;;;;;5033025;28;20033;-36
2022/07/01 01:34:06;;;;;;;11.63;4.45;;;;;;;;;;5032406;28;20053;-36
2022/07/01 01:36:32;;;;;;;8.10;4.80;;;;;;;;;;5032995;28;20100;-37
2022/07/01 01:39:30;;;;;;;7.53;4.00;;;;;;;;;;5032278;28;20025;-36
2022/07/01 01:41:48;;;;;;;9.65;4.40;;;;;;;;;;5032479;28;20396;-36
2022/07/01 01:44:14;;;;;;;8.63;3.80;;;;;;;;;;5032678;28;20021;-37
2022/07/01 01:46:39;;;;;;;9.85;4.25;;;;;;;;;;5032607;28;20013;-37
2022/07/01 01:49:05;;;;;;;9.35;4.80;;;;;;;;;;5031029;28;20108;-38
2022/07/01 01:51:31;;;;;;;6.15;4.22;;;;;;;;;;5032568;28;20443;-36
2022/07/01 01:53:56;;;;;;;11.50;4.50;;;;;;;;;;5032501;28;20060;-37
2022/07/01 01:56:22;;;;;;;10.52;4.22;;;;;;;;;;5032296;28;20030;-37
2022/07/01 01:58:48;;;;;;;8.52;4.55;;;;;;;;;;5032196;28;20029;-37
2022/07/01 02:01:13;;;;;;;12.77;4.95;;;;;;;;;;5032447;28;20019;-37
2022/07/01 02:03:39;;;;;;;7.47;4.20;;;;;;;;;;5032258;28;20075;-36
2022/07/01 02:06:05;;;;;;;13.80;5.15;;;;;;;;;;5032360;28;20140;-36
2022/07/01 02:08:31;;;;;;;8.20;4.60;;;;;;;;;;5032233;28;20033;-37
2022/07/01 02:10:57;;;;;;;25.27;6.10;;;;;;;;;;5032133;28;20361;-36
2022/07/01 02:13:22;;;;;;;15.73;5.00;;;;;;;;;;5032392;28;20366;-37
2022/07/01 02:15:49;;;;;;;11.88;4.60;;;;;;;;;;5032018;28;20376;-37
2022/07/01 02:18:14;;;;;;;12.18;5.15;;;;;;;;;;5031844;28;20017;-36
2022/07/01 02:20:41;;;;;;;14.00;6.45;;;;;;;;;;5031915;28;20022;-38
2022/07/01 02:23:06;;;;;;;7.75;4.70;;;;;;;;;;5032008;28;20052;-37
2022/07/01 02:25:32;;;;;;;9.32;4.57;;;;;;;;;;5032282;28;20026;-36
2022/07/01 02:27:58;;;;;;;10.25;4.90;;;;;;;;;;5032169;28;20021;-36
2022/07/01 02:30:23;;;;;;;9.60;4.85;;;;;;;;;;5031602;28;20468;-36
2022/07/01 02:32:49;;;;;;;8.25;5.25;;;;;;;;;;5030935;28;20052;-37
2022/07/01 02:35:14;;;;;;;8.98;4.53;;;;;;;;;;5031752;28;20104;-37
2022/07/01 02:37:39;;;;;;;12.45;5.20;;;;;;;;;;5032021;28;20076;-36
2022/07/01 02:40:05;;;;;;;13.23;5.10;;;;;;;;;;5031963;28;20022;-37
2022/07/01 02:42:34;;;;;;;7.30;4.82;;;;;;;;;;5031824;28;20022;-37
2022/07/01 02:45:00;;;;;;;9.27;5.82;;;;;;;;;;5031418;28;20022;-39
2022/07/01 02:47:30;;;;;;;11.45;4.53;;;;;;;;;;5031586;28;20014;-36
2022/07/01 02:49:56;;;;;;;12.90;4.70;;;;;;;;;;5031660;28;20104;-36
2022/07/01 02:52:21;;;;;;;13.07;5.75;;;;;;;;;;5031711;28;20160;-36
2022/07/01 02:54:46;;;;;;;13.77;5.03;;;;;;;;;;5031745;28;20120;-37
2022/07/01 02:57:12;;;;;;;14.95;5.20;;;;;;;;;;5031275;28;20483;-37
2022/07/01 02:59:37;;;;;;;11.90;4.85;;;;;;;;;;5030359;28;20048;-36
2022/07/01 03:02:03;;;;;;;13.70;5.20;;;;;;;;;;5031334;28;20079;-38
2022/07/01 03:04:28;;;;;;;10.75;5.53;;;;;;;;;;5031752;28;20401;-36
2022/07/01 03:06:55;;;;;;;6.22;4.70;;;;;;;;;;5031666;28;20127;-37
2022/07/01 03:09:20;;;;;;;7.80;5.13;;;;;;;;;;5031313;28;20032;-38
2022/07/01 03:11:45;;;;;;;9.88;4.95;;;;;;;;;;5031717;28;20021;-36
2022/07/01 03:14:11;;;;;;;9.93;5.20;;;;;;;;;;5031302;28;20040;-37
2022/07/01 03:16:36;;;;;;;13.57;5.00;;;;;;;;;;5031217;28;20014;-37
2022/07/01 03:19:02;;;;;;;9.80;4.45;;;;;;;;;;5030778;28;20057;-38
2022/07/01 03:21:27;;;;;;;10.90;5.43;;;;;;;;;;5031282;28;20112;-36
2022/07/01 03:23:52;;;;;;;6.53;4.18;;;;;;;;;;5031278;28;20067;-37
2022/07/01 03:26:18;;;;;;;13.30;5.07;;;;;;;;;;5031318;28;20018;-36
2022/07/01 03:28:43;;;;;;;12.32;4.78;;;;;;;;;;5031337;28;20025;-36
2022/07/01 03:31:08;;;;;;;8.85;4.90;;;;;;;;;;5031120;28;20441;-36
2022/07/01 03:33:34;;;;;;;11.88;5.18;;;;;;;;;;5029253;28;20053;-37
2022/07/01 03:35:59;;;;;;;8.40;4.75;;;;;;;;;;5031347;28;20049;-36
2022/07/01 03:38:24;;;;;;;9.23;5.53;;;;;;;;;;5031364;28;20092;-37
2022/07/01 03:40:50;;;;;;;11.80;4.55;;;;;;;;;;5029992;28;20021;-37
2022/07/01 03:43:15;;;;;;;7.82;4.80;;;;;;;;;;5033453;28;20026;-37
2022/07/01 03:45:40;;;;;;;12.55;5.53;;;;;;;;;;5034820;28;20028;-37
2022/07/01 03:48:06;;;;;;;13.60;4.97;;;;;;;;;;5034699;28;20026;-36
2022/07/01 03:50:31;;;;;;;6.70;4.05;;;;;;;;;;5034682;28;20095;-37
2022/07/01 03:55:41;;;;;;;11.52;5.82;;;;;;;;;;5034898;28;20381;-36
2022/07/01 03:58:06;;;;;;;10.35;4.80;;;;;;;;;;5034365;28;20025;-36
2022/07/01 04:00:33;;;;;;;33.50;7.05;;;;;;;;;;5034712;28;20029;-40
2022/07/01 04:02:59;;;;;;;36.58;7.40;;;;;;;;;;5033309;28;20040;-36
2022/07/01 04:05:24;;;;;;;29.60;6.43;;;;;;;;;;5034764;28;20477;-36
2022/07/01 04:07:49;;;;;;;14.27;5.40;;;;;;;;;;5034434;28;20024;-38
2022/07/01 04:10:15;;;;;;;10.75;4.95;;;;;;;;;;5034216;28;20021;-37
2022/07/01 04:12:40;;;;;;;12.40;5.32;;;;;;;;;;5034646;28;20034;-37
2022/07/01 04:15:06;;;;;;;16.88;5.00;;;;;;;;;;5034290;28;20460;-36
2022/07/01 04:17:31;;;;;;;18.95;5.35;;;;;;;;;;5034128;28;20029;-37
2022/07/01 04:19:57;;;;;;;14.32;4.72;;;;;;;;;;5034458;28;20032;-36
2022/07/01 04:22:35;;;;;;;17.48;4.70;;;;;;;;;;5034109;28;20026;-36
2022/07/01 04:25:01;;;;;;;18.48;5.00;;;;;;;;;;5034317;28;20033;-37
2022/07/01 04:27:26;;;;;;;15.88;5.00;;;;;;;;;;5034258;28;20030;-36
2022/07/01 04:29:52;;;;;;;18.00;5.43;;;;;;;;;;5034087;28;20433;-38
2022/07/01 04:32:17;;;;;;;15.57;4.88;;;;;;;;;;5033775;28;20025;-36
2022/07/01 04:34:42;;;;;;;20.70;5.00;;;;;;;;;;5033879;28;20038;-37
2022/07/01 04:37:08;;;;;;;15.68;5.30;;;;;;;;;;5034113;28;20048;-36
2022/07/01 04:39:33;;;;;;;29.95;7.10;;;;;;;;;;5034059;28;20392;-37
2022/07/01 04:42:01;;;;;;;22.95;5.85;;;;;;;;;;5033906;28;20048;-37
2022/07/01 04:44:37;;;;;;;17.52;5.97;;;;;;;;;;5032547;28;20468;-37
2022/07/01 04:47:03;;;;;;;23.17;5.82;;;;;;;;;;5033416;28;20030;-37
2022/07/01 04:49:28;;;;;;;19.13;5.45;;;;;;;;;;5033871;28;20516;-36
2022/07/01 04:51:54;;;;;;;22.52;5.70;;;;;;;;;;5033841;28;20025;-36
2022/07/01 04:54:19;;;;;;;29.55;6.88;;;;;;;;;;5032756;28;20041;-36
2022/07/01 04:56:45;;;;;;;20.23;5.80;;;;;;;;;;5033548;28;20044;-37
2022/07/01 04:59:14;;;;;;;18.40;5.50;;;;;;;;;;5033278;28;20391;-38
2022/07/01 05:01:39;;;;;;;;;;;;;;;;;;5034326;28;20029;-37
2022/07/01 05:04:05;;;;;;;25.53;5.70;;;;;;;;;;5033381;28;19905;-37
2022/07/01 05:06:30;;;;;;;14.55;5.10;;;;;;;;;;5033552;28;20013;-39
2022/07/01 05:08:56;;;;;;;14.10;5.40;;;;;;;;;;5033008;28;20472;-37
2022/07/01 05:11:21;;;;;;;21.60;6.25;;;;;;;;;;5033366;28;20321;-38
2022/07/01 05:13:46;;;;;;;16.58;5.45;;;;;;;;;;5033162;28;20112;-37
2022/07/01 05:16:12;;;;;;;20.27;5.45;;;;;;;;;;5033062;28;20021;-38
2022/07/01 05:24:06;;;;;;;28.02;8.32;;;;;;;;;;5033084;28;20079;-37
2022/07/01 05:26:31;;;;;;;26.65;6.40;;;;;;;;;;5033086;28;20437;-36
2022/07/01 05:28:56;;;;;;;28.33;6.32;;;;;;;;;;5033168;28;20022;-37
2022/07/01 05:31:22;;;;;;;14.75;5.30;;;;;;;;;;5033361;28;20014;-37
2022/07/01 05:33:47;;;;;;;23.73;7.07;;;;;;;;;;5032450;28;20057;-36
2022/07/01 05:36:13;;;;;;;27.60;6.65;;;;;;;;;;5033135;28;20043;-36
2022/07/01 05:38:38;;;;;;;25.02;5.70;;;;;;;;;;5032757;28;20022;-39
2022/07/01 05:41:04;;;;;;;18.77;6.20;;;;;;;;;;5032331;28;20025;-37
2022/07/01 05:43:30;;;;;;;21.75;6.60;;;;;;;;;;5015801;28;20075;-36
2022/07/01 05:45:56;;;;;;;24.55;6.00;;;;;;;;;;5011298;28;20424;-44
2022/07/01 05:48:22;;;;;;;16.42;5.78;;;;;;;;;;5015395;28;20109;-38
2022/07/01 05:50:47;;;;;;;23.20;6.20;;;;;;;;;;5045135;28;20109;-38
2022/07/01 05:53:13;;;;;;;14.93;5.13;;;;;;;;;;5041813;28;20145;-37
2022/07/01 05:55:38;;;;;;;18.02;5.20;;;;;;;;;;5030888;28;20094;-41
2022/07/01 05:58:03;;;;;;;14.95;4.93;;;;;;;;;;5052078;28;20017;-37
2022/07/01 06:00:29;;;;;;;15.75;4.90;;;;;;;;;;5034679;28;20450;-38
2022/07/01 06:02:54;;;;;;;13.18;5.00;;;;;;;;;;5029970;28;20643;-37
2022/07/01 06:05:20;;;;;;;19.00;5.57;;;;;;;;;;5029898;28;20468;-37
2022/07/01 06:07:45;;;;;;;39.58;7.45;;;;;;;;;;5023701;28;20025;-36
2022/07/01 06:10:11;;;;;;;16.75;5.45;;;;;;;;;;5023875;28;20385;-39
2022/07/01 06:12:36;;;;;;;16.17;5.25;;;;;;;;;;5020945;28;20021;-36
2022/07/01 06:15:02;;;;;;;15.40;5.43;;;;;;;;;;5012085;28;20465;-39
2022/07/01 06:17:27;;;;;;;18.85;6.00;;;;;;;;;;5029301;28;20031;-37
2022/07/01 06:19:53;;;;;;;28.58;6.05;;;;;;;;;;5030500;28;20064;-37
2022/07/01 06:22:20;;;;;;;24.58;5.90;;;;;;;;;;5031102;28;20018;-37
2022/07/01 06:24:46;;;;;;;22.30;5.68;;;;;;;;;;5031370;28;20071;-38
2022/07/01 06:27:11;;;;;;;18.40;5.55;;;;;;;;;;5026012;28;20022;-40
2022/07/01 06:29:37;;;;;;;15.00;5.15;;;;;;;;;;5012295;28;20026;-37
2022/07/01 06:32:03;;;;;;;12.52;4.97;;;;;;;;;;5031245;28;20026;-37
2022/07/01 06:34:29;;;;;;;20.27;5.10;;;;;;;;;;5029661;28;20068;-39
2022/07/01 06:36:55;;;;;;;19.17;5.45;;;;;;;;;;5020120;28;20025;-37
2022/07/01 06:39:21;;;;;;;13.38;4.20;;;;;;;;;;5029833;28;20041;-36
2022/07/01 06:41:46;;;;;;;10.00;4.47;;;;;;;;;;5030447;28;20100;-37
2022/07/01 06:44:12;;;;;;;7.33;4.10;;;;;;;;;;5030794;28;20021;-38
2022/07/01 06:46:37;;;;;;;9.73;4.07;;;;;;;;;;5030020;28;20453;-37
2022/07/01 06:49:03;;;;;;;12.75;4.90;;;;;;;;;;5028010;28;20023;-37
2022/07/01 06:51:29;;;;;;;13.23;4.70;;;;;;;;;;5029222;28;20017;-38
2022/07/01 06:53:54;;;;;;;13.68;4.70;;;;;;;;;;5029556;28;20120;-38
2022/07/01 06:56:20;;;;;;;8.45;4.18;;;;;;;;;;5028704;28;20482;-37
2022/07/01 06:58:45;;;;;;;18.73;5.03;;;;;;;;;;5031204;28;20029;-36
2022/07/01 07:01:11;;;;;;;45.13;6.57;;;;;;;;;;5026083;28;20032;-43
2022/07/01 07:03:36;;;;;;;12.50;4.25;;;;;;;;;;5029504;28;20032;-38
2022/07/01 07:06:02;;;;;;;12.97;4.10;;;;;;;;;;5030587;28;20021;-38
2022/07/01 07:08:28;;;;;;;14.13;4.32;;;;;;;;;;5036822;28;20337;-39
2022/07/01 07:10:54;;;;;;;8.48;4.15;;;;;;;;;;5028252;28;20033;-38
2022/07/01 07:13:19;;;;;;;6.85;3.70;;;;;;;;;;5030406;28;20029;-38
2022/07/01 07:15:44;;;;;;;20.83;4.78;;;;;;;;;;5030771;28;20429;-39
2022/07/01 07:18:10;;;;;;;10.20;4.43;;;;;;;;;;5030380;28;20017;-37
2022/07/01 07:20:35;;;;;;;10.35;4.32;;;;;;;;;;5028330;28;20021;-37
2022/07/01 07:23:01;;;;;;;9.77;4.70;;;;;;;;;;5034833;28;20105;-38
2022/07/01 07:25:27;;;;;;;8.93;3.40;;;;;;;;;;5050979;28;20013;-41
2022/07/01 07:27:52;;;;;;;11.30;4.18;;;;;;;;;;5047011;28;20021;-38
2022/07/01 07:30:18;;;;;;;10.20;3.70;;;;;;;;;;5033091;28;20038;-39
2022/07/01 07:32:43;;;;;;;7.00;3.45;;;;;;;;;;5029819;28;20049;-38
2022/07/01 07:35:10;;;;;;;11.07;4.07;;;;;;;;;;5032499;28;20036;-39
2022/07/01 07:37:35;;;;;;;19.52;4.45;;;;;;;;;;5033683;28;20396;-37
2022/07/01 07:40:01;;;;;;;10.77;4.40;;;;;;;;;;5034300;28;20030;-37
2022/07/01 07:42:26;;;;;;;14.82;5.38;;;;;;;;;;5030576;28;20071;-37
2022/07/01 07:44:52;;;;;;;14.10;4.25;;;;;;;;;;5032431;28;20084;-36
2022/07/01 07:47:17;;;;;;;18.45;4.50;;;;;;;;;;5031967;28;20060;-37
2022/07/01 07:49:42;;;;;;;9.23;3.92;;;;;;;;;;5027660;28;20018;-40
2022/07/01 07:52:08;;;;;;;13.40;5.23;;;;;;;;;;5029517;28;20108;-39
2022/07/01 07:54:33;;;;;;;11.38;4.13;;;;;;;;;;5030687;28;20365;-36
2022/07/01 07:56:59;;;;;;;10.68;4.82;;;;;;;;;;5033534;28;20013;-37
2022/07/01 07:59:24;;;;;;;17.57;4.87;;;;;;;;;;5029411;28;20067;-37
2022/07/01 08:01:49;;;;;;;12.50;4.37;;;;;;;;;;5037824;28;20009;-38
2022/07/01 08:04:14;;;;;;;10.10;5.03;;;;;;;;;;5050256;28;20301;-36
2022/07/01 08:06:40;;;;;;;9.30;4.07;;;;;;;;;;5032579;28;20460;-37
2022/07/01 08:09:06;;;;;;;13.60;4.67;;;;;;;;;;5034098;28;20255;-37
2022/07/01 08:11:31;;;;;;;12.18;4.30;;;;;;;;;;5030156;28;20682;-37
2022/07/01 08:13:57;;;;;;;13.40;4.47;;;;;;;;;;5033477;28;20033;-37
2022/07/01 08:16:22;;;;;;;10.48;4.10;;;;;;;;;;5031762;28;20070;-38
2022/07/01 08:18:47;;;;;;;10.02;4.35;;;;;;;;;;5032041;28;20101;-38
2022/07/01 08:21:13;;;;;;;11.23;4.20;;;;;;;;;;5031214;28;20072;-37
2022/07/01 08:23:38;;;;;;;11.65;3.85;;;;;;;;;;5030791;28;20025;-38
2022/07/01 08:26:03;;;;;;;17.88;4.75;;;;;;;;;;5031825;28;20452;-39
2022/07/01 08:28:30;;;;;;;10.03;3.60;;;;;;;;;;5030637;28;20084;-37
2022/07/01 08:30:55;;;;;;;11.48;4.47;;;;;;;;;;5031066;28;20622;-36
2022/07/01 08:33:20;;;;;;;11.85;3.65;;;;;;;;;;5031729;28;20060;-39
2022/07/01 08:35:46;;;;;;;13.27;4.03;;;;;;;;;;5032563;28;20139;-37
2022/07/01 08:38:12;;;;;;;7.40;3.72;;;;;;;;;;5030581;28;20033;-37
2022/07/01 08:40:37;;;;;;;9.05;3.25;;;;;;;;;;5030968;28;20033;-38
2022/07/01 08:43:04;;;;;;;9.90;3.22;;;;;;;;;;5028649;28;20017;-38
2022/07/01 08:45:30;;;;;;;16.02;4.13;;;;;;;;;;5030838;28;20053;-39
2022/07/01 08:48:00;;;;;;;6.50;3.50;;;;;;;;;;5033198;28;20026;-37
2022/07/01 08:50:26;;;;;;;7.80;3.75;;;;;;;;;;5032450;28;20021;-36
2022/07/01 08:52:51;;;;;;;6.45;3.58;;;;;;;;;;5030786;28;20030;-38
2022/07/01 08:55:17;;;;;;;7.13;3.55;;;;;;;;;;5034839;28;20041;-36
2022/07/01 08:57:43;;;;;;;10.82;3.67;;;;;;;;;;5035070;28;20033;-41
2022/07/01 09:00:08;;;;;;;9.00;3.58;;;;;;;;;;5033143;28;20021;-38
2022/07/01 09:02:53;;;;;;;7.63;4.03;;;;;;;;;;5032679;28;20029;-36
2022/07/01 09:05:19;;;;;;;14.80;4.07;;;;;;;;;;5032092;28;20377;-37
2022/07/01 09:07:46;;;;;;;11.80;4.57;;;;;;;;;;5031242;28;20033;-36
2022/07/01 09:10:12;;;;;;;16.02;4.28;;;;;;;;;;5031255;28;20060;-37
2022/07/01 09:12:38;;;;;;;8.95;3.58;;;;;;;;;;5028809;28;20041;-38
2022/07/01 09:15:18;;;;;;;6.93;3.67;;;;;;;;;;5027080;28;20041;-38
2022/07/01 09:17:43;;;;;;;12.50;4.38;;;;;;;;;;5030294;28;20376;-37
2022/07/01 09:20:22;;;;;;;10.23;3.57;;;;;;;;;;5031080;28;20124;-38
2022/07/01 09:22:57;;;;;;;10.88;3.47;;;;;;;;;;5029073;28;20093;-37
2022/07/01 09:25:27;;;;;;;5.82;2.92;;;;;;;;;;5030055;28;20552;-37
2022/07/01 09:28:13;;;;;;;10.45;3.78;;;;;;;;;;5029787;28;20057;-38
2022/07/01 09:30:39;;;;;;;10.45;3.33;;;;;;;;;;5031338;28;20385;-38
2022/07/01 09:33:14;;;;;;;7.03;3.17;;;;;;;;;;5025393;28;20055;-39
2022/07/01 09:35:40;;;;;;;8.55;2.75;;;;;;;;;;5030349;28;20029;-39
2022/07/01 09:38:07;;;;;;;11.13;3.60;;;;;;;;;;5030151;28;20025;-40
2022/07/01 09:40:50;;;;;;;10.02;3.67;;;;;;;;;;5031579;28;20075;-38
2022/07/01 09:43:16;;;;;;;12.60;3.53;;;;;;;;;;5031606;28;20045;-37
2022/07/01 09:45:51;;;;;;;16.03;3.27;;;;;;;;;;5029927;28;20056;-38
2022/07/01 09:48:16;;;;;;;9.73;3.40;;;;;;;;;;5030408;28;20308;-37
2022/07/01 09:50:42;;;;;;;49.23;7.37;;;;;;;;;;5030415;28;20021;-38
2022/07/01 09:53:07;;;;;;;11.50;3.47;;;;;;;;;;5019656;28;20255;-42
2022/07/01 09:55:34;;;;;;;8.68;2.72;;;;;;;;;;5026796;28;20045;-38
2022/07/01 09:57:59;;;;;;;8.23;3.28;;;;;;;;;;5027816;28;20026;-40
2022/07/01 10:00:25;;;;;;;11.47;3.73;;;;;;;;;;5029758;28;20031;-38
2022/07/01 10:02:51;;;;;;;11.02;3.35;;;;;;;;;;5027730;28;20258;-39
2022/07/01 10:05:19;;;;;;;9.80;2.67;;;;;;;;;;5026938;28;20017;-37
2022/07/01 10:07:52;;;;;;;10.38;3.35;;;;;;;;;;5030350;28;20026;-37
2022/07/01 10:10:34;;;;;;;8.65;3.00;;;;;;;;;;5031678;28;20044;-37
2022/07/01 10:13:02;;;;;;;7.70;3.28;;;;;;;;;;5024825;28;20411;-40
2022/07/01 10:15:27;;;;;;;11.17;3.23;;;;;;;;;;5017413;28;20052;-39
2022/07/01 10:17:53;;;;;;;9.23;4.00;;;;;;;;;;5031584;28;20715;-37
2022/07/01 10:20:28;;;;;;;13.03;3.63;;;;;;;;;;5031554;28;20060;-38
2022/07/01 10:23:00;;;;;;;12.70;3.85;;;;;;;;;;5028095;28;20344;-37
2022/07/01 10:25:44;;;;;;;14.32;4.22;;;;;;;;;;5019581;28;20036;-38
2022/07/01 10:28:24;;;;;;;7.57;3.08;;;;;;;;;;5011570;28;20033;-39
2022/07/01 10:30:52;;;;;;;11.35;3.20;;;;;;;;;;5011706;28;20022;-39
2022/07/01 10:33:27;;;;;;;12.70;3.67;;;;;;;;;;5010992;28;20053;-41
2022/07/01 10:35:52;;;;;;;13.55;3.35;;;;;;;;;;5013167;28;20029;-37
2022/07/01 10:38:17;;;;;;;42.83;5.38;;;;;;;;;;5019768;28;20412;-37
2022/07/01 10:40:48;;;;;;;12.90;3.53;;;;;;;;;;5011782;28;20053;-38
2022/07/01 10:43:17;;;;;;;14.30;3.60;;;;;;;;;;5011113;28;20022;-38
2022/07/01 10:45:45;;;;;;;7.68;3.25;;;;;;;;;;5010824;28;20037;-39
2022/07/01 10:48:10;;;;;;;;;;;;;;;;;;5022797;28;20487;-41
2022/07/01 10:50:38;;;;;;;23.37;4.60;;;;;;;;;;5020820;28;20012;-37
2022/07/01 10:53:03;;;;;;;12.18;3.60;;;;;;;;;;5024335;28;20362;-38
2022/07/01 10:55:36;;;;;;;5.97;3.38;;;;;;;;;;5016889;28;20033;-37
2022/07/01 10:58:01;;;;;;;14.32;3.60;;;;;;;;;;5030706;28;20477;-38
2022/07/01 11:00:31;;;;;;;9.93;3.30;;;;;;;;;;5031068;28;20032;-37
2022/07/01 11:03:04;;;;;;;10.35;3.30;;;;;;;;;;5031069;28;20028;-37
2022/07/01 11:05:30;;;;;;;31.75;5.00;;;;;;;;;;5030052;28;20100;-37
2022/07/01 11:07:55;;;;;;;10.23;3.60;;;;;;;;;;5031304;28;20025;-37
2022/07/01 11:10:21;;;;;;;30.05;3.90;;;;;;;;;;5030875;28;20024;-38
2022/07/01 11:12:49;;;;;;;14.60;4.03;;;;;;;;;;5030013;28;20420;-39
2022/07/01 11:15:14;;;;;;;18.42;4.28;;;;;;;;;;5030232;28;20125;-38
2022/07/01 11:17:44;;;;;;;13.25;4.30;;;;;;;;;;5029351;28;20108;-43
2022/07/01 11:20:10;;;;;;;9.90;3.58;;;;;;;;;;5030719;28;20426;-37
2022/07/01 11:22:35;;;;;;;11.30;3.88;;;;;;;;;;5030871;28;20028;-38
2022/07/01 11:25:02;;;;;;;14.07;3.95;;;;;;;;;;5029696;28;20029;-40
2022/07/01 11:27:28;;;;;;;14.38;4.53;;;;;;;;;;5030695;28;20503;-37
2022/07/01 11:29:54;;;;;;;12.88;4.65;;;;;;;;;;5030893;28;20022;-37
2022/07/01 11:32:26;;;;;;;10.60;3.85;;;;;;;;;;5029124;28;20110;-38
2022/07/01 11:34:52;;;;;;;14.10;3.80;;;;;;;;;;5027735;28;20140;-39
2022/07/01 11:40:05;;;;;;;12.40;4.30;;;;;;;;;;5028321;28;20099;-38
2022/07/01 11:42:31;;;;;;;12.25;3.70;;;;;;;;;;5015446;28;20592;-39
2022/07/01 11:44:57;;;;;;;10.35;3.88;;;;;;;;;;5028138;28;20020;-40
2022/07/01 11:47:23;;;;;;;7.70;3.25;;;;;;;;;;5030366;28;20718;-37
2022/07/01 11:49:50;;;;;;;15.85;4.03;;;;;;;;;;5030643;28;20098;-38
2022/07/01 11:52:19;;;;;;;12.60;3.58;;;;;;;;;;5030381;28;20391;-38
2022/07/01 11:54:46;;;;;;;15.32;4.05;;;;;;;;;;5030043;28;20102;-36
2022/07/01 11:57:12;;;;;;;13.80;3.55;;;;;;;;;;5030155;28;20021;-41
2022/07/01 11:59:39;;;;;;;13.73;3.63;;;;;;;;;;5030117;28;20018;-40
2022/07/01 12:02:04;;;;;;;10.63;3.60;;;;;;;;;;5030507;28;20025;-37
2022/07/01 12:04:30;;;;;;;7.45;3.03;;;;;;;;;;5029679;28;20520;-38
2022/07/01 12:06:55;;;;;;;12.38;4.10;;;;;;;;;;5032624;28;20032;-38
2022/07/01 12:09:21;;;;;;;10.90;3.55;;;;;;;;;;5034350;28;20114;-37
2022/07/01 12:11:47;;;;;;;10.55;4.03;;;;;;;;;;5033945;28;20435;-38
2022/07/01 12:14:22;;;;;;;7.75;3.30;;;;;;;;;;5032612;28;20040;-40
2022/07/01 12:16:50;;;;;;;25.17;3.97;;;;;;;;;;5033915;28;20095;-37
2022/07/01 12:19:16;;;;;;;17.00;3.45;;;;;;;;;;5033908;28;20369;-36
2022/07/01 12:21:48;;;;;;;16.67;3.93;;;;;;;;;;5034152;28;20022;-38
2022/07/01 12:24:15;;;;;;;9.63;3.70;;;;;;;;;;5031422;28;20803;-38
2022/07/01 12:26:52;;;;;;;10.23;3.33;;;;;;;;;;5033405;28;20040;-38
2022/07/01 12:29:21;;;;;;;17.60;3.95;;;;;;;;;;5034057;28;20392;-38
2022/07/01 12:31:54;;;;;;;10.18;3.85;;;;;;;;;;5034012;28;20103;-38
2022/07/01 12:34:19;;;;;;;12.18;3.78;;;;;;;;;;5030872;28;20107;-38
2022/07/01 12:36:49;;;;;;;10.93;3.63;;;;;;;;;;5033437;28;20105;-36
2022/07/01 12:39:14;;;;;;;15.32;4.40;;;;;;;;;;5033060;28;20739;-36
2022/07/01 12:41:40;;;;;;;16.67;4.10;;;;;;;;;;5032273;28;20021;-38
2022/07/01 12:44:19;;;;;;;11.43;4.15;;;;;;;;;;5032132;28;20438;-37
2022/07/01 12:46:44;;;;;;;14.00;3.60;;;;;;;;;;5033314;28;20053;-39
2022/07/01 12:49:17;;;;;;;13.10;3.57;;;;;;;;;;5033128;28;20833;-36
2022/07/01 12:51:43;;;;;;;8.25;3.40;;;;;;;;;;5033120;28;20476;-39
2022/07/01 12:54:08;;;;;;;11.43;4.10;;;;;;;;;;5032334;28;20035;-36
2022/07/01 12:56:33;;;;;;;13.60;3.93;;;;;;;;;;5032647;28;20026;-37
2022/07/01 12:58:58;;;;;;;12.93;3.67;;;;;;;;;;5032903;28;20028;-37
2022/07/01 13:01:24;;;;;;;10.73;3.73;;;;;;;;;;5033197;28;20254;-37
2022/07/01 13:03:49;;;;;;;12.85;4.00;;;;;;;;;;5032933;28;20057;-38
2022/07/01 13:06:15;;;;;;;12.73;3.75;;;;;;;;;;5032833;28;20064;-38
2022/07/01 13:08:40;;;;;;;7.33;3.20;;;;;;;;;;5033031;28;20032;-39
2022/07/01 13:11:06;;;;;;;14.40;3.40;;;;;;;;;;5032629;28;20545;-38
2022/07/01 13:13:31;;;;;;;16.17;3.80;;;;;;;;;;5032794;28;20376;-38
2022/07/01 13:15:57;;;;;;;9.88;3.58;;;;;;;;;;5032905;28;20017;-37
2022/07/01 13:18:22;;;;;;;12.13;3.88;;;;;;;;;;5033288;28;20021;-39
2022/07/01 13:20:47;;;;;;;29.88;4.78;;;;;;;;;;5032955;28;20021;-38
2022/07/01 13:23:13;;;;;;;29.40;6.53;;;;;;;;;;5029428;28;20385;-37
2022/07/01 13:25:38;;;;;;;11.43;3.45;;;;;;;;;;5032743;28;20037;-36
2022/07/01 13:28:04;;;;;;;10.90;3.55;;;;;;;;;;5032687;28;20021;-37
2022/07/01 13:30:29;;;;;;;15.85;3.78;;;;;;;;;;5026658;28;20025;-39
2022/07/01 13:32:54;;;;;;;10.60;3.60;;;;;;;;;;5041652;28;20112;-39
2022/07/01 13:35:21;;;;;;;8.20;3.87;;;;;;;;;;5030368;28;20041;-36
2022/07/01 13:37:46;;;;;;;20.17;4.32;;;;;;;;;;5032034;28;20435;-36
2022/07/01 13:40:12;;;;;;;8.10;3.90;;;;;;;;;;5027696;28;20050;-40
2022/07/01 13:42:37;;;;;;;13.23;3.92;;;;;;;;;;5028841;28;20265;-36
2022/07/01 13:45:03;;;;;;;12.05;4.03;;;;;;;;;;5027485;28;20036;-39
2022/07/01 13:47:29;;;;;;;14.18;3.90;;;;;;;;;;5031121;28;20104;-37
2022/07/01 13:49:54;;;;;;;14.27;4.28;;;;;;;;;;5029751;28;20025;-35
2022/07/01 13:52:19;;;;;;;28.60;4.45;;;;;;;;;;5030212;28;20461;-40
2022/07/01 13:54:45;;;;;;;18.70;4.43;;;;;;;;;;5029694;28;20064;-36
2022/07/01 13:57:10;;;;;;;12.57;3.70;;;;;;;;;;5031812;28;20243;-38
2022/07/01 13:59:35;;;;;;;16.83;7.83;;;;;;;;;;5030676;28;20251;-36
2022/07/01 14:02:01;;;;;;;14.40;5.10;;;;;;;;;;5027337;28;20259;-40
2022/07/01 14:04:27;;;;;;;18.30;4.93;;;;;;;;;;5028655;28;20025;-39
2022/07/01 14:06:53;;;;;;;11.88;4.13;;;;;;;;;;5025372;28;20050;-37
2022/07/01 14:09:19;;;;;;;12.52;4.10;;;;;;;;;;5012577;28;20057;-38
2022/07/01 14:11:45;;;;;;;13.75;4.20;;;;;;;;;;5026427;28;20377;-38
2022/07/01 14:14:11;;;;;;;15.07;4.35;;;;;;;;;;5027144;28;20041;-40
2022/07/01 14:16:36;;;;;;;10.55;4.50;;;;;;;;;;5029210;28;20075;-37
2022/07/01 14:19:01;;;;;;;16.95;5.03;;;;;;;;;;5030457;28;20026;-37
2022/07/01 14:21:27;;;;;;;10.68;4.22;;;;;;;;;;5031583;28;20101;-37
2022/07/01 14:23:52;;;;;;;10.65;4.30;;;;;;;;;;5030300;28;20112;-38
2022/07/01 14:26:18;;;;;;;12.00;5.40;;;;;;;;;;5031545;28;20060;-37
2022/07/01 14:28:43;;;;;;;14.15;4.38;;;;;;;;;;5031459;28;20243;-36
2022/07/01 14:31:09;;;;;;;16.98;5.43;;;;;;;;;;5031476;28;20032;-36
2022/07/01 14:33:34;;;;;;;17.80;5.35;;;;;;;;;;5031114;28;20076;-37
2022/07/01 14:36:00;;;;;;;12.70;4.82;;;;;;;;;;5031530;28;20018;-37
2022/07/01 14:38:25;;;;;;;17.05;4.68;;;;;;;;;;5031308;28;20088;-37
2022/07/01 14:40:50;;;;;;;15.63;4.70;;;;;;;;;;5031677;28;20083;-36